createdAt,value
2023-07-16T00:02:44.174Z,3.17
2023-07-16T00:07:46.234Z,3.60
2023-07-16T00:12:50.201Z,2.80
2023-07-16T00:17:52.139Z,2.83
2023-07-16T00:22:54.443Z,1.48
2023-07-16T00:27:57.948Z,1.90
2023-07-16T00:33:00.241Z,1.75
2023-07-16T00:38:02.468Z,1.60
2023-07-16T00:43:06.120Z,1.95
2023-07-16T00:48:09.257Z,1.95
2023-07-16T00:53:12.848Z,1.85
2023-07-16T00:58:16.110Z,2.10
2023-07-16T01:03:18.696Z,2.15
2023-07-16T01:08:29.060Z,3.97
2023-07-16T01:13:33.086Z,0.70
2023-07-16T01:18:35.402Z,0.80
2023-07-16T01:24:02.105Z,0.90
2023-07-16T01:29:26.871Z,0.80
2023-07-16T01:34:32.464Z,0.75
2023-07-16T01:39:35.013Z,0.47
2023-07-16T01:44:38.609Z,0.60
2023-07-16T01:49:41.037Z,0.85
2023-07-16T01:54:43.061Z,0.80
2023-07-16T01:59:47.481Z,0.70
2023-07-16T02:04:49.523Z,0.80
2023-07-16T02:09:51.618Z,0.73
2023-07-16T02:14:54.873Z,0.60
2023-07-16T02:19:56.811Z,0.95
2023-07-16T02:24:58.759Z,0.88
2023-07-16T02:30:02.202Z,1.13
2023-07-16T02:35:04.625Z,1.08
2023-07-16T02:40:08.479Z,1.40
2023-07-16T02:45:13.155Z,0.90
2023-07-16T02:50:15.129Z,1.10
2023-07-16T02:55:17.410Z,1.00
2023-07-16T03:00:20.826Z,0.95
2023-07-16T03:05:22.807Z,1.02
2023-07-16T03:10:27.948Z,0.70
2023-07-16T03:15:31.736Z,0.98
2023-07-16T03:20:35.910Z,1.00
2023-07-16T03:25:37.708Z,0.88
2023-07-16T03:30:41.714Z,1.10
2023-07-16T03:35:46.202Z,1.10
2023-07-16T03:40:50.032Z,1.00
2023-07-16T03:45:53.525Z,1.27
2023-07-16T03:50:55.841Z,0.98
2023-07-16T03:55:57.773Z,1.00
2023-07-16T04:01:01.329Z,1.05
2023-07-16T04:06:07.445Z,1.13
2023-07-16T04:11:09.890Z,0.80
2023-07-16T04:16:13.409Z,1.25
2023-07-16T04:21:15.453Z,1.20
2023-07-16T04:26:17.840Z,1.20
2023-07-16T04:31:21.487Z,1.25
2023-07-16T04:36:23.368Z,1.30
2023-07-16T04:41:25.436Z,1.08
2023-07-16T04:46:29.110Z,1.10
2023-07-16T04:51:30.926Z,1.00
2023-07-16T04:56:33.423Z,0.95
2023-07-16T05:01:36.814Z,0.98
2023-07-16T05:06:39.037Z,1.20
2023-07-16T05:11:42.750Z,1.17
2023-07-16T05:16:46.333Z,1.15
2023-07-16T05:21:48.133Z,1.10
2023-07-16T05:26:51.335Z,1.23
2023-07-16T05:31:54.743Z,1.00
2023-07-16T05:36:57.171Z,0.88
2023-07-16T05:41:59.120Z,1.05
2023-07-16T05:47:02.576Z,1.00
2023-07-16T05:52:05.016Z,0.93
2023-07-16T05:57:07.855Z,1.15
2023-07-16T06:02:11.680Z,1.20
2023-07-16T06:07:14.711Z,1.30
2023-07-16T06:12:16.871Z,1.20
2023-07-16T06:17:20.140Z,1.27
2023-07-16T06:22:22.188Z,1.00
2023-07-16T06:27:24.285Z,1.05
2023-07-16T06:32:28.025Z,1.10
2023-07-16T06:37:30.009Z,1.10
2023-07-16T06:42:32.314Z,0.95
2023-07-16T06:47:36.057Z,0.98
2023-07-16T06:52:38.055Z,1.10
2023-07-16T06:57:41.111Z,1.00
2023-07-16T07:02:44.761Z,0.85
2023-07-16T07:07:47.626Z,1.10
2023-07-16T07:12:49.580Z,1.33
2023-07-16T07:17:53.405Z,1.08
2023-07-16T07:22:56.104Z,1.30
2023-07-16T07:27:58.385Z,1.40
2023-07-16T07:33:02.574Z,1.33
2023-07-16T07:38:04.960Z,1.23
2023-07-16T07:43:07.120Z,1.20
2023-07-16T07:48:10.913Z,1.35
2023-07-16T07:53:13.021Z,1.10
2023-07-16T07:58:15.304Z,1.33
2023-07-16T08:03:19.003Z,1.10
2023-07-16T08:08:24.257Z,1.27
2023-07-16T08:13:26.796Z,1.10
2023-07-16T08:18:30.373Z,1.20
2023-07-16T08:23:32.929Z,1.00
2023-07-16T08:28:35.462Z,1.30
2023-07-16T08:33:39.084Z,1.30
2023-07-16T08:38:41.110Z,1.30
2023-07-16T08:43:43.918Z,1.20
2023-07-16T08:48:48.040Z,1.33
2023-07-16T08:53:50.562Z,1.30
2023-07-16T08:58:56.839Z,1.85
2023-07-16T09:04:01.143Z,1.20
2023-07-16T09:09:03.047Z,1.10
2023-07-16T09:14:05.492Z,1.20
2023-07-16T09:19:16.646Z,1.15
2023-07-16T09:24:21.706Z,1.20
2023-07-16T09:29:25.241Z,1.08
2023-07-16T09:34:29.916Z,1.42
2023-07-16T09:39:33.974Z,1.30
2023-07-16T09:44:36.188Z,1.40
2023-07-16T09:49:39.825Z,1.33
2023-07-16T09:54:43.858Z,1.40
2023-07-16T09:59:47.866Z,1.35
2023-07-16T10:04:51.524Z,1.50
2023-07-16T10:09:56.686Z,1.25
2023-07-16T10:14:59.312Z,1.20
2023-07-16T10:20:06.138Z,1.15
2023-07-16T10:25:14.426Z,1.42
2023-07-16T10:30:16.709Z,1.00
2023-07-16T10:35:20.469Z,1.20
2023-07-16T10:40:22.984Z,1.25
2023-07-16T10:45:25.128Z,1.20
2023-07-16T10:50:28.967Z,1.20
2023-07-16T10:55:35.725Z,1.13
2023-07-16T11:00:41.518Z,1.42
2023-07-16T11:05:48.443Z,1.10
2023-07-16T11:10:58.603Z,1.40
2023-07-16T11:16:09.809Z,1.40
2023-07-16T11:21:13.641Z,1.20
2023-07-16T11:26:19.448Z,1.20
2023-07-16T11:31:25.261Z,1.15
2023-07-16T11:36:31.444Z,1.40
2023-07-16T11:41:33.932Z,1.48
2023-07-16T11:46:36.846Z,1.65
2023-07-16T11:51:40.438Z,1.25
2023-07-16T11:56:42.240Z,1.25
2023-07-16T12:01:44.288Z,1.30
2023-07-16T12:06:48.299Z,1.35
2023-07-16T12:11:50.608Z,1.58
2023-07-16T12:16:52.968Z,1.50
2023-07-16T12:21:57.854Z,1.83
2023-07-16T12:27:00.121Z,1.40
2023-07-16T12:32:02.518Z,1.20
2023-07-16T12:37:06.879Z,1.40
2023-07-16T12:42:09.724Z,1.58
2023-07-16T12:47:11.680Z,1.83
2023-07-16T12:52:14.925Z,1.10
2023-07-16T12:57:16.902Z,1.55
2023-07-16T13:02:19.915Z,1.70
2023-07-16T13:07:25.090Z,1.30
2023-07-16T13:12:28.694Z,1.40
2023-07-16T13:17:31.816Z,1.30
2023-07-16T13:22:38.423Z,1.38
2023-07-16T13:27:43.126Z,2.58
2023-07-16T13:32:48.555Z,1.40
2023-07-16T13:37:54.989Z,1.35
2023-07-16T13:43:00.475Z,1.20
2023-07-16T13:48:05.091Z,1.42
2023-07-16T13:53:13.674Z,1.45
2023-07-16T13:58:18.438Z,1.58
2023-07-16T14:03:22.990Z,1.40
2023-07-16T14:08:29.605Z,1.50
2023-07-16T14:13:34.214Z,1.52
2023-07-16T14:18:38.804Z,1.65
2023-07-16T14:23:44.907Z,1.17
2023-07-16T14:28:49.306Z,1.40
2023-07-16T14:33:53.791Z,1.60
2023-07-16T14:38:59.496Z,1.23
2023-07-16T14:44:05.177Z,1.55
2023-07-16T14:49:11.249Z,1.52
2023-07-16T14:54:17.326Z,1.48
2023-07-16T14:59:21.729Z,1.40
2023-07-16T15:04:26.573Z,1.40
2023-07-16T15:09:32.836Z,1.60
2023-07-16T15:14:37.391Z,2.08
2023-07-16T15:19:42.570Z,1.60
2023-07-16T15:24:48.717Z,1.58
2023-07-16T15:29:53.430Z,1.65
2023-07-16T15:34:57.625Z,1.90
2023-07-16T15:40:15.605Z,1.48
2023-07-16T15:45:19.801Z,1.80
2023-07-16T15:50:24.467Z,1.80
2023-07-16T15:55:30.604Z,1.67
2023-07-16T16:00:34.984Z,1.50
2023-07-16T16:05:41.346Z,1.25
2023-07-16T16:10:49.605Z,1.42
2023-07-16T16:15:54.224Z,1.40
2023-07-16T16:20:58.564Z,1.60
2023-07-16T16:26:05.033Z,1.52
2023-07-16T16:31:10.426Z,1.60
2023-07-16T16:36:15.069Z,1.63
2023-07-16T16:41:23.114Z,1.77
2023-07-16T16:46:28.038Z,1.60
2023-07-16T16:51:32.723Z,2.08
2023-07-16T16:56:39.038Z,1.60
2023-07-16T17:01:43.862Z,1.90
2023-07-16T17:06:48.317Z,1.90
2023-07-16T17:11:54.153Z,1.55
2023-07-16T17:16:58.523Z,1.52
2023-07-16T17:22:01.915Z,1.60
2023-07-16T17:27:07.468Z,2.10
2023-07-16T17:32:11.219Z,1.60
2023-07-16T17:37:13.599Z,1.83
2023-07-16T17:42:17.578Z,1.50
2023-07-16T17:47:20.340Z,1.52
2023-07-16T17:52:23.407Z,1.55
2023-07-16T17:57:27.521Z,1.55
2023-07-16T18:02:30.841Z,1.58
2023-07-16T18:07:34.184Z,1.80
2023-07-16T18:12:40.017Z,1.23
2023-07-16T18:17:46.740Z,1.63
2023-07-16T18:22:51.827Z,1.98
2023-07-16T18:28:00.324Z,1.90
2023-07-16T18:33:05.659Z,1.55
2023-07-16T18:38:10.713Z,1.95
2023-07-16T18:43:18.343Z,3.22
2023-07-16T18:48:23.879Z,2.88
2023-07-16T18:53:29.798Z,2.13
2023-07-16T18:58:39.036Z,2.30
2023-07-16T19:03:43.614Z,1.88
2023-07-16T19:08:48.413Z,2.80
2023-07-16T19:13:55.074Z,1.80
2023-07-16T19:18:59.617Z,1.60
2023-07-16T19:24:06.378Z,1.80
2023-07-16T19:29:11.865Z,1.70
2023-07-16T19:34:15.853Z,1.55
2023-07-16T19:39:20.340Z,2.00
2023-07-16T19:44:26.116Z,1.70
2023-07-16T19:49:30.463Z,1.80
2023-07-16T19:54:35.051Z,1.70
2023-07-16T19:59:41.242Z,1.73
2023-07-16T20:04:46.046Z,2.10
2023-07-16T20:09:55.081Z,2.13
2023-07-16T20:15:03.887Z,2.00
2023-07-16T20:20:13.176Z,1.55
2023-07-16T20:25:25.118Z,1.90
2023-07-16T20:30:32.301Z,2.95
2023-07-16T20:35:37.234Z,3.83
2023-07-16T20:40:41.859Z,3.65
2023-07-16T20:45:49.209Z,3.13
2023-07-16T20:50:53.812Z,3.08
2023-07-16T20:55:58.472Z,2.83
2023-07-16T21:01:02.052Z,3.10
2023-07-16T21:06:06.731Z,3.17
2023-07-16T21:11:08.685Z,2.60
2023-07-16T21:16:12.174Z,2.38
2023-07-16T21:21:15.186Z,2.78
2023-07-16T21:26:17.770Z,2.53
2023-07-16T21:31:22.243Z,2.60
2023-07-16T21:36:24.543Z,2.70
2023-07-16T21:41:26.743Z,2.47
2023-07-16T21:46:30.613Z,2.42
2023-07-16T21:51:33.508Z,2.50
2023-07-16T21:56:35.658Z,2.53
2023-07-16T22:01:39.139Z,2.17
2023-07-16T22:06:41.124Z,2.47
2023-07-16T22:11:43.698Z,2.08
2023-07-16T22:16:47.754Z,2.20
2023-07-16T22:21:50.212Z,2.22
2023-07-16T22:26:52.208Z,2.42
2023-07-16T22:31:55.789Z,2.22
2023-07-16T22:36:58.187Z,2.10
2023-07-16T22:42:00.195Z,2.30
2023-07-16T22:47:04.039Z,2.13
2023-07-16T22:52:06.968Z,2.28
2023-07-16T22:57:09.062Z,2.30
2023-07-16T23:02:20.183Z,2.70
2023-07-16T23:07:30.555Z,2.47
2023-07-16T23:12:32.794Z,2.65
2023-07-16T23:17:36.552Z,2.63
2023-07-16T23:22:39.262Z,3.22
2023-07-16T23:27:42.004Z,3.30
2023-07-16T23:32:45.625Z,3.25
2023-07-16T23:37:47.541Z,3.10
2023-07-16T23:42:50.161Z,3.28
2023-07-16T23:47:53.638Z,3.05
2023-07-16T23:52:55.781Z,2.92
2023-07-16T23:57:57.909Z,3.33
